createdAt,value
2018-07-16T00:00:40.036Z,100895.02
2018-07-16T00:05:34.688Z,100886.57
2018-07-16T00:10:29.282Z,100890.95
2018-07-16T00:15:23.808Z,100888.23
2018-07-16T00:20:18.648Z,100888.95
2018-07-16T00:25:13.267Z,100877.86
2018-07-16T00:30:08.073Z,100879.05
2018-07-16T00:35:02.610Z,100881.45
2018-07-16T00:39:57.278Z,100872.42
2018-07-16T00:44:51.965Z,100867.23
2018-07-16T00:49:46.921Z,100862.57
2018-07-16T00:54:42.108Z,100857.91
2018-07-16T00:59:36.467Z,100853.58
2018-07-16T01:04:30.972Z,100848.98
2018-07-16T01:09:25.572Z,100851.22
2018-07-16T01:14:21.414Z,100858.97
2018-07-16T01:19:16.209Z,100846.48
2018-07-16T01:24:11.453Z,100847.31
2018-07-16T01:29:06.012Z,100849.34
2018-07-16T01:34:00.551Z,100851.50
2018-07-16T01:38:55.149Z,100841.09
2018-07-16T01:43:49.739Z,100845.57
2018-07-16T01:48:44.363Z,100843.19
2018-07-16T01:53:38.871Z,100838.98
2018-07-16T01:58:33.365Z,100834.64
2018-07-16T02:03:30.557Z,100841.23
2018-07-16T02:08:27.242Z,100835.92
2018-07-16T02:13:22.192Z,100835.59
2018-07-16T02:18:16.886Z,100832.11
2018-07-16T02:23:11.164Z,100836.66
2018-07-16T02:28:05.923Z,100835.98
2018-07-16T02:33:00.499Z,100827.75
2018-07-16T02:37:55.513Z,100836.91
2018-07-16T02:42:50.071Z,100831.35
2018-07-16T02:47:44.684Z,100833.34
2018-07-16T02:52:40.041Z,100836.02
2018-07-16T02:57:34.706Z,100835.08
2018-07-16T03:02:29.190Z,100839.86
2018-07-16T03:07:23.547Z,100841.55
2018-07-16T03:12:18.185Z,100844.22
2018-07-16T03:17:12.965Z,100841.80
2018-07-16T03:22:08.027Z,100849.09
2018-07-16T03:27:02.913Z,100842.92
2018-07-16T03:31:57.588Z,100851.42
2018-07-16T03:36:52.086Z,100844.73
2018-07-16T03:41:46.573Z,100846.93
2018-07-16T03:46:41.246Z,100849.09
2018-07-16T03:51:35.762Z,100849.48
2018-07-16T03:56:30.272Z,100859.53
2018-07-16T04:01:24.506Z,100850.05
2018-07-16T04:06:19.118Z,100846.67
2018-07-16T04:11:13.674Z,100849.95
2018-07-16T04:16:08.350Z,100845.20
2018-07-16T04:21:03.024Z,100847.97
2018-07-16T04:25:57.737Z,100853.67
2018-07-16T04:30:52.309Z,100846.25
2018-07-16T04:35:47.131Z,100843.31
2018-07-16T04:40:41.596Z,100855.48
2018-07-16T04:45:36.046Z,100849.09
2018-07-16T04:50:31.292Z,100841.27
2018-07-16T04:55:26.160Z,100841.81
2018-07-16T05:00:20.687Z,100840.48
2018-07-16T05:05:15.412Z,100839.44
2018-07-16T05:10:11.036Z,100840.16
2018-07-16T05:15:05.783Z,100838.84
2018-07-16T05:20:00.458Z,100836.19
2018-07-16T05:24:55.687Z,100825.70
2018-07-16T05:29:49.940Z,100822.45
2018-07-16T05:34:44.409Z,100822.98
2018-07-16T05:39:38.910Z,100823.50
2018-07-16T05:44:33.682Z,100821.34
2018-07-16T05:49:28.453Z,100825.52
2018-07-16T05:54:23.295Z,100827.70
2018-07-16T05:59:18.269Z,100828.19
2018-07-16T06:04:13.338Z,100835.24
2018-07-16T06:09:08.358Z,100843.10
2018-07-16T06:14:03.132Z,100834.60
2018-07-16T06:18:58.466Z,100841.94
2018-07-16T06:23:54.446Z,100839.26
2018-07-16T06:28:49.394Z,100831.58
2018-07-16T06:33:44.372Z,100825.53
2018-07-16T06:38:39.124Z,100822.69
2018-07-16T06:43:33.860Z,100824.03
2018-07-16T06:48:28.391Z,100825.88
2018-07-16T06:53:23.462Z,100825.12
2018-07-16T06:58:18.319Z,100814.05
2018-07-16T07:03:13.119Z,100818.20
2018-07-16T07:08:08.119Z,100824.12
2018-07-16T07:13:03.121Z,100818.95
2018-07-16T07:17:57.974Z,100826.31
2018-07-16T07:22:53.453Z,100825.28
2018-07-16T07:27:48.439Z,100820.28
2018-07-16T07:32:43.075Z,100815.03
2018-07-16T07:37:37.955Z,100815.34
2018-07-16T07:42:32.949Z,100813.85
2018-07-16T07:47:27.642Z,100801.03
2018-07-16T07:52:22.430Z,100798.77
2018-07-16T07:57:17.465Z,100789.06
2018-07-16T08:02:12.338Z,100791.83
2018-07-16T08:07:14.031Z,100790.47
2018-07-16T08:12:09.768Z,100791.47
2018-07-16T08:17:05.057Z,100786.31
2018-07-16T08:21:59.990Z,100785.13
2018-07-16T08:26:55.156Z,100784.80
2018-07-16T08:31:50.202Z,100786.41
2018-07-16T08:36:45.452Z,100782.11
2018-07-16T08:41:40.600Z,100786.91
2018-07-16T08:46:35.582Z,100776.63
2018-07-16T08:51:30.374Z,100781.72
2018-07-16T08:56:25.346Z,100777.91
2018-07-16T09:01:20.387Z,100790.31
2018-07-16T09:06:15.326Z,100775.75
2018-07-16T09:11:10.179Z,100773.60
2018-07-16T09:16:05.050Z,100776.64
2018-07-16T09:20:59.573Z,100777.33
2018-07-16T09:25:54.483Z,100771.50
2018-07-16T09:30:49.397Z,100770.39
2018-07-16T09:35:44.317Z,100764.24
2018-07-16T09:40:39.139Z,100760.89
2018-07-16T09:45:34.373Z,100753.91
2018-07-16T09:50:29.434Z,100756.90
2018-07-16T09:55:24.382Z,100743.22
2018-07-16T10:00:24.965Z,100733.62
2018-07-16T10:05:19.796Z,100724.43
2018-07-16T10:10:14.941Z,100714.45
2018-07-16T10:15:09.564Z,100712.02
2018-07-16T10:20:04.185Z,100698.68
2018-07-16T10:25:00.682Z,100696.56
2018-07-16T10:29:55.779Z,100697.90
2018-07-16T10:34:50.565Z,100703.09
2018-07-16T10:39:45.831Z,100702.83
2018-07-16T10:44:40.897Z,100697.84
2018-07-16T10:49:35.490Z,100693.93
2018-07-16T10:54:30.408Z,100687.70
2018-07-16T10:59:25.301Z,100682.60
2018-07-16T11:04:20.490Z,100686.91
2018-07-16T11:09:15.216Z,100680.73
2018-07-16T11:14:10.095Z,100680.02
2018-07-16T11:19:05.028Z,100671.88
2018-07-16T11:23:59.854Z,100673.11
2018-07-16T11:28:54.614Z,100674.41
2018-07-16T11:33:49.487Z,100674.61
2018-07-16T11:38:44.516Z,100667.88
2018-07-16T11:43:39.380Z,100673.99
2018-07-16T11:48:34.265Z,100662.48
2018-07-16T11:53:29.402Z,100650.37
2018-07-16T11:58:24.046Z,100652.36
2018-07-16T12:03:18.933Z,100650.13
2018-07-16T12:08:14.790Z,100647.75
2018-07-16T12:13:09.764Z,100637.12
2018-07-16T12:18:04.325Z,100635.59
2018-07-16T12:22:59.142Z,100628.83
2018-07-16T12:27:54.580Z,100622.44
2018-07-16T12:32:49.587Z,100617.36
2018-07-16T12:37:44.279Z,100608.96
2018-07-16T12:42:39.228Z,100607.67
2018-07-16T12:47:33.969Z,100605.98
2018-07-16T12:52:28.778Z,100600.47
2018-07-16T12:57:24.177Z,100599.34
2018-07-16T13:02:19.130Z,100588.31
2018-07-16T13:07:14.267Z,100584.22
2018-07-16T13:12:09.456Z,100575.55
2018-07-16T13:17:04.548Z,100576.09
2018-07-16T13:21:59.913Z,100558.80
2018-07-16T13:26:54.704Z,100562.74
2018-07-16T13:31:49.450Z,100557.11
2018-07-16T13:36:44.173Z,100552.20
2018-07-16T13:41:39.063Z,100545.42
2018-07-16T13:46:34.550Z,100544.14
2018-07-16T13:51:29.327Z,100537.24
2018-07-16T13:56:24.242Z,100532.13
2018-07-16T14:01:19.621Z,100529.89
2018-07-16T14:06:14.330Z,100528.00
2018-07-16T14:11:09.191Z,100525.58
2018-07-16T14:16:03.969Z,100524.73
2018-07-16T14:20:59.122Z,100521.42
2018-07-16T14:25:53.938Z,100521.65
2018-07-16T14:30:48.472Z,100524.71
2018-07-16T14:35:43.459Z,100510.64
2018-07-16T14:40:38.023Z,100513.67
2018-07-16T14:45:33.016Z,100509.80
2018-07-16T14:50:28.061Z,100511.84
2018-07-16T14:55:22.986Z,100511.11
2018-07-16T15:00:18.262Z,100507.08
2018-07-16T15:05:13.057Z,100508.03
2018-07-16T15:10:07.825Z,100514.27
2018-07-16T15:15:03.154Z,100503.78
2018-07-16T15:19:59.194Z,100506.30
2018-07-16T15:24:54.425Z,100504.52
2018-07-16T15:29:49.950Z,100497.11
2018-07-16T15:34:45.304Z,100488.52
2018-07-16T15:39:40.661Z,100495.33
2018-07-16T15:44:36.117Z,100494.91
2018-07-16T15:49:31.968Z,100494.86
2018-07-16T15:54:27.800Z,100495.40
2018-07-16T15:59:22.934Z,100487.65
2018-07-16T16:04:18.036Z,100485.27
2018-07-16T16:09:14.093Z,100486.86
2018-07-16T16:14:10.308Z,100480.49
2018-07-16T16:19:05.331Z,100484.17
2018-07-16T16:24:00.211Z,100485.39
2018-07-16T16:28:54.975Z,100489.70
2018-07-16T16:33:49.957Z,100483.16
2018-07-16T16:38:44.853Z,100483.72
2018-07-16T16:43:40.392Z,100482.73
2018-07-16T16:48:37.030Z,100474.29
2018-07-16T16:53:35.625Z,100471.09
2018-07-16T16:58:33.901Z,100475.42
2018-07-16T17:03:37.901Z,100482.20
2018-07-16T17:08:32.774Z,100478.79
2018-07-16T17:13:27.549Z,100470.41
2018-07-16T17:18:23.254Z,100476.42
2018-07-16T17:23:18.036Z,100470.80
2018-07-16T17:28:12.881Z,100477.22
2018-07-16T17:33:07.800Z,100467.09
2018-07-16T17:38:02.682Z,100479.75
2018-07-16T17:42:57.638Z,100478.06
2018-07-16T17:47:52.337Z,100487.73
2018-07-16T17:52:47.472Z,100494.14
2018-07-16T17:57:43.130Z,100497.20
2018-07-16T18:02:38.341Z,100494.19
2018-07-16T18:07:33.289Z,100494.53
2018-07-16T18:12:29.969Z,100495.73
2018-07-16T18:17:29.359Z,100499.42
2018-07-16T18:22:25.359Z,100495.59
2018-07-16T18:27:20.483Z,100505.54
2018-07-16T18:32:15.722Z,100507.33
2018-07-16T18:37:10.738Z,100512.97
2018-07-16T18:42:06.007Z,100512.53
2018-07-16T18:47:00.858Z,100526.75
2018-07-16T18:51:57.201Z,100533.97
2018-07-16T18:56:52.040Z,100534.77
2018-07-16T19:01:46.857Z,100537.61
2018-07-16T19:06:42.626Z,100546.46
2018-07-16T19:11:37.816Z,100552.95
2018-07-16T19:16:33.024Z,100546.16
2018-07-16T19:21:29.670Z,100556.16
2018-07-16T19:26:25.337Z,100555.72
2018-07-16T19:31:20.198Z,100575.09
2018-07-16T19:36:15.264Z,100576.50
2018-07-16T19:41:10.614Z,100575.70
2018-07-16T19:46:05.837Z,100584.69
2018-07-16T19:51:01.554Z,100592.76
2018-07-16T19:55:57.752Z,100594.37
2018-07-16T20:00:54.517Z,100610.66
2018-07-16T20:05:51.408Z,100611.53
2018-07-16T20:10:47.591Z,100611.55
2018-07-16T20:15:42.479Z,100614.08
2018-07-16T20:20:51.060Z,100616.38
2018-07-16T20:25:47.757Z,100620.06
2018-07-16T20:30:43.352Z,100630.27
2018-07-16T20:35:38.302Z,100630.00
2018-07-16T20:40:33.047Z,100633.73
2018-07-16T20:45:33.528Z,100638.38
2018-07-16T20:50:30.151Z,100645.53
2018-07-16T20:55:27.041Z,100648.23
2018-07-16T21:00:23.147Z,100652.89
2018-07-16T21:05:19.354Z,100639.92
2018-07-16T21:10:15.238Z,100646.20
2018-07-16T21:15:12.338Z,100648.09
2018-07-16T21:20:09.532Z,100647.57
2018-07-16T21:25:05.107Z,100652.51
2018-07-16T21:30:04.094Z,100656.41
2018-07-16T21:34:59.679Z,100658.93
2018-07-16T21:39:54.430Z,100666.38
2018-07-16T21:44:49.743Z,100666.70
2018-07-16T21:49:45.491Z,100676.94
2018-07-16T21:54:40.566Z,100688.77
2018-07-16T21:59:35.385Z,100674.75
2018-07-16T22:04:31.007Z,100677.09
2018-07-16T22:09:27.783Z,100677.11
2018-07-16T22:14:24.353Z,100672.19
2018-07-16T22:19:19.531Z,100683.65
2018-07-16T22:24:14.444Z,100690.36
2018-07-16T22:29:08.992Z,100686.94
2018-07-16T22:34:04.421Z,100683.72
2018-07-16T22:38:59.816Z,100690.55
2018-07-16T22:43:55.400Z,100694.02
2018-07-16T22:48:50.476Z,100691.97
2018-07-16T22:53:45.073Z,100698.81
2018-07-16T22:58:39.894Z,100698.07
2018-07-16T23:03:34.650Z,100697.03
2018-07-16T23:08:29.770Z,100698.16
2018-07-16T23:13:24.737Z,100699.46
2018-07-16T23:18:19.708Z,100703.98
2018-07-16T23:23:14.990Z,100705.47
2018-07-16T23:28:09.839Z,100701.66
2018-07-16T23:33:05.844Z,100705.50
2018-07-16T23:38:00.452Z,100707.61
2018-07-16T23:43:02.119Z,100723.19
2018-07-16T23:47:56.864Z,100715.25
2018-07-16T23:52:51.344Z,100716.18
2018-07-16T23:57:46.660Z,100719.61
